sensor_id;sensor_type;location;lat;lon;timestamp;pressure;altitude;pressure_sealevel;temperature;humidity
64876;BME280;51369;49.862;9.908;2023-03-14T00:00:53;96512.16;;;10.70;83.78
64876;BME280;51369;49.862;9.908;2023-03-14T00:03:19;96511.19;;;10.71;84.35
64876;BME280;51369;49.862;9.908;2023-03-14T00:05:45;96510.19;;;10.72;83.85
64876;BME280;51369;49.862;9.908;2023-03-14T00:08:10;96517.22;;;10.74;84.13
64876;BME280;51369;49.862;9.908;2023-03-14T00:10:37;96526.16;;;10.75;84.81
64876;BME280;51369;49.862;9.908;2023-03-14T00:13:03;96523.47;;;10.75;84.24
64876;BME280;51369;49.862;9.908;2023-03-14T00:15:28;96509.75;;;10.78;84.26
64876;BME280;51369;49.862;9.908;2023-03-14T00:17:54;96492.59;;;10.79;84.45
64876;BME280;51369;49.862;9.908;2023-03-14T00:20:19;96497.88;;;10.81;84.44
64876;BME280;51369;49.862;9.908;2023-03-14T00:22:44;96501.31;;;10.83;83.81
64876;BME280;51369;49.862;9.908;2023-03-14T00:25:11;96497.66;;;10.84;83.17
64876;BME280;51369;49.862;9.908;2023-03-14T00:27:37;96498.28;;;10.87;83.20
64876;BME280;51369;49.862;9.908;2023-03-14T00:30:05;96509.81;;;10.89;83.52
64876;BME280;51369;49.862;9.908;2023-03-14T00:32:31;96498.91;;;10.91;83.13
64876;BME280;51369;49.862;9.908;2023-03-14T00:34:56;96489.84;;;10.92;82.59
64876;BME280;51369;49.862;9.908;2023-03-14T00:37:21;96494.16;;;10.94;82.77
64876;BME280;51369;49.862;9.908;2023-03-14T00:39:48;96502.03;;;10.97;83.48
64876;BME280;51369;49.862;9.908;2023-03-14T00:42:13;96498.25;;;11.00;83.05
64876;BME280;51369;49.862;9.908;2023-03-14T00:44:39;96511.63;;;11.01;82.98
64876;BME280;51369;49.862;9.908;2023-03-14T00:47:06;96508.81;;;11.03;83.24
64876;BME280;51369;49.862;9.908;2023-03-14T00:49:32;96503.28;;;11.04;82.67
64876;BME280;51369;49.862;9.908;2023-03-14T00:51:57;96525.66;;;11.06;83.18
64876;BME280;51369;49.862;9.908;2023-03-14T00:54:22;96513.00;;;11.07;82.24
64876;BME280;51369;49.862;9.908;2023-03-14T00:56:48;96502.94;;;11.09;82.31
64876;BME280;51369;49.862;9.908;2023-03-14T00:59:15;96511.91;;;11.09;81.27
64876;BME280;51369;49.862;9.908;2023-03-14T01:01:41;96497.31;;;11.12;81.51
64876;BME280;51369;49.862;9.908;2023-03-14T01:04:07;96508.97;;;11.13;81.35
64876;BME280;51369;49.862;9.908;2023-03-14T01:06:32;96510.72;;;11.14;81.91
64876;BME280;51369;49.862;9.908;2023-03-14T01:08:59;96505.31;;;11.14;81.74
64876;BME280;51369;49.862;9.908;2023-03-14T01:11:31;96495.47;;;11.13;81.31
64876;BME280;51369;49.862;9.908;2023-03-14T01:13:58;96496.22;;;11.15;82.10
64876;BME280;51369;49.862;9.908;2023-03-14T01:16:25;96495.38;;;11.14;82.23
64876;BME280;51369;49.862;9.908;2023-03-14T01:18:51;96505.31;;;11.14;81.53
64876;BME280;51369;49.862;9.908;2023-03-14T01:21:26;96502.72;;;11.12;80.56
64876;BME280;51369;49.862;9.908;2023-03-14T01:23:53;96484.56;;;11.14;80.72
64876;BME280;51369;49.862;9.908;2023-03-14T01:26:22;96483.69;;;11.14;81.16
64876;BME280;51369;49.862;9.908;2023-03-14T01:28:50;96480.16;;;11.13;81.51
64876;BME280;51369;49.862;9.908;2023-03-14T01:31:16;96479.28;;;11.13;80.83
64876;BME280;51369;49.862;9.908;2023-03-14T01:33:42;96474.84;;;11.12;81.01
64876;BME280;51369;49.862;9.908;2023-03-14T01:36:08;96478.41;;;11.12;81.48
64876;BME280;51369;49.862;9.908;2023-03-14T01:38:35;96474.84;;;11.12;81.25
64876;BME280;51369;49.862;9.908;2023-03-14T01:41:02;96473.13;;;11.11;81.06
64876;BME280;51369;49.862;9.908;2023-03-14T01:43:28;96473.13;;;11.11;82.02
64876;BME280;51369;49.862;9.908;2023-03-14T01:48:35;96462.34;;;11.11;81.63
64876;BME280;51369;49.862;9.908;2023-03-14T01:51:02;96452.38;;;11.11;81.46
64876;BME280;51369;49.862;9.908;2023-03-14T01:53:29;96444.41;;;11.09;81.32
64876;BME280;51369;49.862;9.908;2023-03-14T01:55:55;96433.59;;;11.09;81.60
64876;BME280;51369;49.862;9.908;2023-03-14T01:58:23;96440.84;;;11.09;81.57
64876;BME280;51369;49.862;9.908;2023-03-14T02:00:50;96443.66;;;11.07;81.59
64876;BME280;51369;49.862;9.908;2023-03-14T02:03:17;96438.38;;;11.06;81.33
64876;BME280;51369;49.862;9.908;2023-03-14T02:05:46;96439.22;;;11.06;81.53
64876;BME280;51369;49.862;9.908;2023-03-14T02:08:19;96438.25;;;11.07;81.63
64876;BME280;51369;49.862;9.908;2023-03-14T02:10:56;96427.69;;;11.04;80.65
64876;BME280;51369;49.862;9.908;2023-03-14T02:13:34;96414.41;;;11.01;81.88
64876;BME280;51369;49.862;9.908;2023-03-14T02:16:15;96414.53;;;11.00;81.69
64876;BME280;51369;49.862;9.908;2023-03-14T02:18:52;96403.97;;;10.97;80.64
64876;BME280;51369;49.862;9.908;2023-03-14T02:21:38;96407.00;;;10.92;80.96
64876;BME280;51369;49.862;9.908;2023-03-14T02:24:30;96401.72;;;10.91;80.52
64876;BME280;51369;49.862;9.908;2023-03-14T02:29:36;96391.16;;;10.88;81.43
64876;BME280;51369;49.862;9.908;2023-03-14T02:32:02;96381.47;;;10.85;81.22
64876;BME280;51369;49.862;9.908;2023-03-14T02:34:29;96379.72;;;10.84;81.59
64876;BME280;51369;49.862;9.908;2023-03-14T02:36:57;96388.69;;;10.85;81.80
64876;BME280;51369;49.862;9.908;2023-03-14T02:39:31;96385.03;;;10.86;82.21
64876;BME280;51369;49.862;9.908;2023-03-14T02:41:58;96388.47;;;10.88;81.83
64876;BME280;51369;49.862;9.908;2023-03-14T02:44:24;96393.75;;;10.89;82.11
64876;BME280;51369;49.862;9.908;2023-03-14T02:46:49;96391.03;;;10.89;81.43
64876;BME280;51369;49.862;9.908;2023-03-14T02:49:15;96393.75;;;10.89;81.95
64876;BME280;51369;49.862;9.908;2023-03-14T02:51:43;96396.44;;;10.89;82.42
64876;BME280;51369;49.862;9.908;2023-03-14T02:54:10;96391.03;;;10.89;81.36
64876;BME280;51369;49.862;9.908;2023-03-14T02:56:36;96381.97;;;10.90;81.91
64876;BME280;51369;49.862;9.908;2023-03-14T02:59:03;96378.41;;;10.90;81.52
64876;BME280;51369;49.862;9.908;2023-03-14T03:01:42;96368.47;;;10.90;81.73
64876;BME280;51369;49.862;9.908;2023-03-14T03:04:07;96368.47;;;10.90;81.86
64876;BME280;51369;49.862;9.908;2023-03-14T03:06:33;96374.72;;;10.91;81.69
64876;BME280;51369;49.862;9.908;2023-03-14T03:08:59;96371.28;;;10.89;81.54
64876;BME280;51369;49.862;9.908;2023-03-14T03:11:25;96363.31;;;10.87;82.16
64876;BME280;51369;49.862;9.908;2023-03-14T03:13:51;96344.63;;;10.84;82.22
64876;BME280;51369;49.862;9.908;2023-03-14T03:16:16;96352.13;;;10.81;81.79
64876;BME280;51369;49.862;9.908;2023-03-14T03:18:41;96363.88;;;10.80;82.31
64876;BME280;51369;49.862;9.908;2023-03-14T03:21:08;96359.34;;;10.80;82.82
64876;BME280;51369;49.862;9.908;2023-03-14T03:23:34;96354.81;;;10.81;82.71
64876;BME280;51369;49.862;9.908;2023-03-14T03:26:01;96352.13;;;10.81;83.11
64876;BME280;51369;49.862;9.908;2023-03-14T03:28:27;96346.84;;;10.79;82.57
64876;BME280;51369;49.862;9.908;2023-03-14T03:30:53;96342.41;;;10.78;81.88
64876;BME280;51369;49.862;9.908;2023-03-14T03:33:19;96337.13;;;10.76;83.08
64876;BME280;51369;49.862;9.908;2023-03-14T03:35:49;96337.25;;;10.75;82.17
64876;BME280;51369;49.862;9.908;2023-03-14T03:38:19;96343.63;;;10.74;82.63
64876;BME280;51369;49.862;9.908;2023-03-14T03:40:47;96357.97;;;10.74;82.42
64876;BME280;51369;49.862;9.908;2023-03-14T03:43:12;96356.88;;;10.77;83.56
64876;BME280;51369;49.862;9.908;2023-03-14T03:45:41;96349.53;;;10.79;83.17
64876;BME280;51369;49.862;9.908;2023-03-14T03:48:06;96342.91;;;10.83;82.72
64876;BME280;51369;49.862;9.908;2023-03-14T03:50:31;96332.75;;;10.87;83.02
64876;BME280;51369;49.862;9.908;2023-03-14T03:52:57;96340.84;;;10.87;83.34
64876;BME280;51369;49.862;9.908;2023-03-14T03:55:22;96346.00;;;10.90;81.58
64876;BME280;51369;49.862;9.908;2023-03-14T03:57:48;96337.69;;;10.93;82.82
64876;BME280;51369;49.862;9.908;2023-03-14T04:00:13;96324.19;;;10.93;82.05
64876;BME280;51369;49.862;9.908;2023-03-14T04:02:41;96333.16;;;10.93;82.79
64876;BME280;51369;49.862;9.908;2023-03-14T04:05:10;96324.81;;;10.96;82.47
64876;BME280;51369;49.862;9.908;2023-03-14T04:07:39;96322.22;;;10.95;81.92
64876;BME280;51369;49.862;9.908;2023-03-14T04:10:05;96319.75;;;10.92;82.14
64876;BME280;51369;49.862;9.908;2023-03-14T04:12:35;96317.19;;;10.90;82.08
64876;BME280;51369;49.862;9.908;2023-03-14T04:15:08;96308.34;;;10.88;82.42
64876;BME280;51369;49.862;9.908;2023-03-14T04:17:35;96313.00;;;10.86;82.40
64876;BME280;51369;49.862;9.908;2023-03-14T04:20:00;96307.72;;;10.85;82.01
64876;BME280;51369;49.862;9.908;2023-03-14T04:22:34;96312.38;;;10.83;82.27
64876;BME280;51369;49.862;9.908;2023-03-14T04:25:00;96309.78;;;10.81;82.56
64876;BME280;51369;49.862;9.908;2023-03-14T04:27:28;96312.59;;;10.80;82.73
64876;BME280;51369;49.862;9.908;2023-03-14T04:29:55;96313.47;;;10.80;82.54
64876;BME280;51369;49.862;9.908;2023-03-14T04:32:38;96314.22;;;10.82;82.50
64876;BME280;51369;49.862;9.908;2023-03-14T04:35:04;96302.44;;;10.83;82.09
64876;BME280;51369;49.862;9.908;2023-03-14T04:37:30;96306.00;;;10.84;81.55
64876;BME280;51369;49.862;9.908;2023-03-14T04:39:55;96305.88;;;10.85;82.71
64876;BME280;51369;49.862;9.908;2023-03-14T04:42:25;96294.09;;;10.86;82.00
64876;BME280;51369;49.862;9.908;2023-03-14T04:44:51;96296.81;;;10.86;81.92
64876;BME280;51369;49.862;9.908;2023-03-14T04:47:19;96297.53;;;10.88;82.27
64876;BME280;51369;49.862;9.908;2023-03-14T04:49:46;96287.84;;;10.86;81.21
64876;BME280;51369;49.862;9.908;2023-03-14T04:52:14;96296.06;;;10.84;80.56
64876;BME280;51369;49.862;9.908;2023-03-14T04:54:40;96295.19;;;10.84;80.27
64876;BME280;51369;49.862;9.908;2023-03-14T04:57:05;96298.00;;;10.82;81.08
64876;BME280;51369;49.862;9.908;2023-03-14T04:59:33;96297.38;;;10.79;80.80
64876;BME280;51369;49.862;9.908;2023-03-14T05:02:08;96293.94;;;10.76;80.25
64876;BME280;51369;49.862;9.908;2023-03-14T05:04:42;96296.75;;;10.75;81.08
64876;BME280;51369;49.862;9.908;2023-03-14T05:07:19;96290.63;;;10.73;80.51
64876;BME280;51369;49.862;9.908;2023-03-14T05:09:52;96281.91;;;10.69;80.06
64876;BME280;51369;49.862;9.908;2023-03-14T05:12:37;96277.72;;;10.65;80.61
64876;BME280;51369;49.862;9.908;2023-03-14T05:15:38;96283.22;;;10.64;80.08
64876;BME280;51369;49.862;9.908;2023-03-14T05:18:30;96277.09;;;10.62;79.36
64876;BME280;51369;49.862;9.908;2023-03-14T05:21:14;96279.78;;;10.62;79.43
64876;BME280;51369;49.862;9.908;2023-03-14T05:23:46;96280.75;;;10.61;79.57
64876;BME280;51369;49.862;9.908;2023-03-14T05:26:29;96270.94;;;10.60;79.96
64876;BME280;51369;49.862;9.908;2023-03-14T05:29:00;96272.78;;;10.59;80.24
64876;BME280;51369;49.862;9.908;2023-03-14T05:31:34;96276.34;;;10.60;80.43
64876;BME280;51369;49.862;9.908;2023-03-14T05:34:28;96270.81;;;10.61;80.63
64876;BME280;51369;49.862;9.908;2023-03-14T05:37:12;96268.00;;;10.63;80.47
64876;BME280;51369;49.862;9.908;2023-03-14T05:40:00;96267.91;;;10.64;79.99
64876;BME280;51369;49.862;9.908;2023-03-14T05:42:44;96269.50;;;10.67;79.60
64876;BME280;51369;49.862;9.908;2023-03-14T05:45:30;96255.88;;;10.68;80.58
64876;BME280;51369;49.862;9.908;2023-03-14T05:48:06;96257.72;;;10.68;79.46
64876;BME280;51369;49.862;9.908;2023-03-14T05:50:57;96260.44;;;10.68;79.88
64876;BME280;51369;49.862;9.908;2023-03-14T05:53:53;96251.34;;;10.69;79.92
64876;BME280;51369;49.862;9.908;2023-03-14T05:56:37;96253.19;;;10.68;80.24
64876;BME280;51369;49.862;9.908;2023-03-14T05:59:26;96249.63;;;10.68;79.73
64876;BME280;51369;49.862;9.908;2023-03-14T06:02:03;96241.53;;;10.68;79.80
64876;BME280;51369;49.862;9.908;2023-03-14T06:04:38;96254.06;;;10.69;78.84
64876;BME280;51369;49.862;9.908;2023-03-14T06:07:04;96254.78;;;10.71;79.34
64876;BME280;51369;49.862;9.908;2023-03-14T06:09:30;96256.28;;;10.75;79.26
64876;BME280;51369;49.862;9.908;2023-03-14T06:11:59;96264.03;;;10.80;79.53
64876;BME280;51369;49.862;9.908;2023-03-14T06:14:24;96258.38;;;10.83;78.85
64876;BME280;51369;49.862;9.908;2023-03-14T06:16:51;96254.72;;;10.84;79.69
64876;BME280;51369;49.862;9.908;2023-03-14T06:19:19;96248.34;;;10.85;79.62
64876;BME280;51369;49.862;9.908;2023-03-14T06:21:44;96242.06;;;10.84;78.90
64876;BME280;51369;49.862;9.908;2023-03-14T06:24:10;96236.91;;;10.81;77.67
64876;BME280;51369;49.862;9.908;2023-03-14T06:26:41;96252.13;;;10.82;78.09
64876;BME280;51369;49.862;9.908;2023-03-14T06:29:07;96262.94;;;10.82;78.60
64876;BME280;51369;49.862;9.908;2023-03-14T06:31:34;96260.97;;;10.84;77.77
64876;BME280;51369;49.862;9.908;2023-03-14T06:34:02;96262.56;;;10.87;78.53
64876;BME280;51369;49.862;9.908;2023-03-14T06:36:30;96267.59;;;10.91;76.75
64876;BME280;51369;49.862;9.908;2023-03-14T06:38:56;96256.56;;;10.94;76.20
64876;BME280;51369;49.862;9.908;2023-03-14T06:41:22;96254.38;;;10.99;76.78
64876;BME280;51369;49.862;9.908;2023-03-14T06:43:50;96242.47;;;11.02;75.84
64876;BME280;51369;49.862;9.908;2023-03-14T06:46:16;96250.22;;;11.06;75.91
64876;BME280;51369;49.862;9.908;2023-03-14T06:48:42;96238.94;;;11.13;76.29
64876;BME280;51369;49.862;9.908;2023-03-14T06:51:08;96236.84;;;11.16;75.72
64876;BME280;51369;49.862;9.908;2023-03-14T06:53:33;96249.25;;;11.19;75.48
64876;BME280;51369;49.862;9.908;2023-03-14T06:56:01;96233.03;;;11.19;75.71
64876;BME280;51369;49.862;9.908;2023-03-14T06:58:28;96231.34;;;11.18;75.92
64876;BME280;51369;49.862;9.908;2023-03-14T07:00:54;96225.94;;;11.18;75.65
64876;BME280;51369;49.862;9.908;2023-03-14T07:03:26;96229.38;;;11.20;75.80
64876;BME280;51369;49.862;9.908;2023-03-14T07:05:54;96230.22;;;11.20;75.52
64876;BME280;51369;49.862;9.908;2023-03-14T07:08:19;96229.25;;;11.21;75.25
64876;BME280;51369;49.862;9.908;2023-03-14T07:10:45;96221.03;;;11.23;75.98
64876;BME280;51369;49.862;9.908;2023-03-14T07:13:10;96224.47;;;11.25;75.36
64876;BME280;51369;49.862;9.908;2023-03-14T07:15:47;96227.66;;;11.30;75.94
64876;BME280;51369;49.862;9.908;2023-03-14T07:18:13;96230.97;;;11.33;75.48
64876;BME280;51369;49.862;9.908;2023-03-14T07:20:38;96229.00;;;11.35;75.05
64876;BME280;51369;49.862;9.908;2023-03-14T07:23:04;96233.31;;;11.38;74.81
64876;BME280;51369;49.862;9.908;2023-03-14T07:25:36;96223.34;;;11.38;74.93
64876;BME280;51369;49.862;9.908;2023-03-14T07:28:02;96248.53;;;11.39;75.33
64876;BME280;51369;49.862;9.908;2023-03-14T07:30:28;96241.28;;;11.39;74.94
64876;BME280;51369;49.862;9.908;2023-03-14T07:32:55;96239.44;;;11.40;75.67
64876;BME280;51369;49.862;9.908;2023-03-14T07:35:22;96244.72;;;11.41;75.63
64876;BME280;51369;49.862;9.908;2023-03-14T07:37:48;96242.75;;;11.44;75.82
64876;BME280;51369;49.862;9.908;2023-03-14T07:40:17;96240.78;;;11.46;76.13
64876;BME280;51369;49.862;9.908;2023-03-14T07:42:43;96230.84;;;11.46;75.99
64876;BME280;51369;49.862;9.908;2023-03-14T07:45:25;96235.03;;;11.50;76.21
64876;BME280;51369;49.862;9.908;2023-03-14T07:47:50;96228.75;;;11.50;75.87
64876;BME280;51369;49.862;9.908;2023-03-14T07:50:16;96231.34;;;11.51;75.99
64876;BME280;51369;49.862;9.908;2023-03-14T07:52:41;96236.75;;;11.51;75.92
64876;BME280;51369;49.862;9.908;2023-03-14T07:55:07;96241.03;;;11.54;75.17
64876;BME280;51369;49.862;9.908;2023-03-14T07:57:32;96245.34;;;11.56;75.50
64876;BME280;51369;49.862;9.908;2023-03-14T07:59:58;96233.53;;;11.57;74.64
64876;BME280;51369;49.862;9.908;2023-03-14T08:02:23;96245.09;;;11.59;75.80
64876;BME280;51369;49.862;9.908;2023-03-14T08:04:49;96244.84;;;11.62;76.25
64876;BME280;51369;49.862;9.908;2023-03-14T08:07:15;96253.69;;;11.64;76.13
64876;BME280;51369;49.862;9.908;2023-03-14T08:09:41;96248.66;;;11.71;75.42
64876;BME280;51369;49.862;9.908;2023-03-14T08:12:06;96243.72;;;11.76;75.69
64876;BME280;51369;49.862;9.908;2023-03-14T08:14:32;96248.66;;;11.82;75.38
64876;BME280;51369;49.862;9.908;2023-03-14T08:16:57;96244.47;;;11.89;75.30
64876;BME280;51369;49.862;9.908;2023-03-14T08:19:23;96241.41;;;11.94;74.33
64876;BME280;51369;49.862;9.908;2023-03-14T08:21:48;96257.25;;;11.98;73.82
64876;BME280;51369;49.862;9.908;2023-03-14T08:24:13;96255.03;;;12.03;74.58
64876;BME280;51369;49.862;9.908;2023-03-14T08:26:39;96248.25;;;12.09;74.33
64876;BME280;51369;49.862;9.908;2023-03-14T08:29:04;96252.13;;;12.16;74.43
64876;BME280;51369;49.862;9.908;2023-03-14T08:31:30;96253.34;;;12.23;74.63
64876;BME280;51369;49.862;9.908;2023-03-14T08:33:58;96253.56;;;12.31;74.86
64876;BME280;51369;49.862;9.908;2023-03-14T08:36:24;96255.03;;;12.35;74.26
64876;BME280;51369;49.862;9.908;2023-03-14T08:38:49;96260.19;;;12.38;74.28
64876;BME280;51369;49.862;9.908;2023-03-14T08:41:14;96265.47;;;12.40;73.26
64876;BME280;51369;49.862;9.908;2023-03-14T08:43:40;96258.22;;;12.41;73.61
64876;BME280;51369;49.862;9.908;2023-03-14T08:46:05;96249.84;;;12.44;73.39
64876;BME280;51369;49.862;9.908;2023-03-14T08:48:31;96260.41;;;12.47;72.67
64876;BME280;51369;49.862;9.908;2023-03-14T08:51:03;96257.56;;;12.48;71.62
64876;BME280;51369;49.862;9.908;2023-03-14T08:53:29;96259.88;;;12.53;71.58
64876;BME280;51369;49.862;9.908;2023-03-14T08:55:54;96269.22;;;12.60;72.01
64876;BME280;51369;49.862;9.908;2023-03-14T08:58:19;96260.56;;;12.66;71.90
64876;BME280;51369;49.862;9.908;2023-03-14T09:00:45;96250.09;;;12.73;72.19
64876;BME280;51369;49.862;9.908;2023-03-14T09:03:10;96253.84;;;12.81;72.30
64876;BME280;51369;49.862;9.908;2023-03-14T09:05:36;96265.03;;;12.88;72.68
64876;BME280;51369;49.862;9.908;2023-03-14T09:08:01;96259.09;;;12.94;72.59
64876;BME280;51369;49.862;9.908;2023-03-14T09:10:27;96263.84;;;13.01;72.52
64876;BME280;51369;49.862;9.908;2023-03-14T09:12:52;96271.44;;;13.08;71.83
64876;BME280;51369;49.862;9.908;2023-03-14T09:15:18;96259.34;;;13.12;71.29
64876;BME280;51369;49.862;9.908;2023-03-14T09:17:43;96265.25;;;13.17;71.54
64876;BME280;51369;49.862;9.908;2023-03-14T09:20:10;96265.84;;;13.20;72.04
64876;BME280;51369;49.862;9.908;2023-03-14T09:22:36;96268.91;;;13.27;71.46
64876;BME280;51369;49.862;9.908;2023-03-14T09:25:05;96272.06;;;13.32;71.02
64876;BME280;51369;49.862;9.908;2023-03-14T09:27:31;96267.69;;;13.41;70.86
64876;BME280;51369;49.862;9.908;2023-03-14T09:29:56;96282.56;;;13.46;71.07
64876;BME280;51369;49.862;9.908;2023-03-14T09:32:22;96278.44;;;13.52;70.69
64876;BME280;51369;49.862;9.908;2023-03-14T09:34:47;96264.34;;;13.58;70.02
64876;BME280;51369;49.862;9.908;2023-03-14T09:37:13;96271.81;;;13.65;70.35
64876;BME280;51369;49.862;9.908;2023-03-14T09:39:40;96270.41;;;13.71;70.51
64876;BME280;51369;49.862;9.908;2023-03-14T09:42:08;96268.16;;;13.76;70.25
64876;BME280;51369;49.862;9.908;2023-03-14T09:44:43;96264.75;;;13.84;69.94
64876;BME280;51369;49.862;9.908;2023-03-14T09:47:12;96269.31;;;13.93;70.09
64876;BME280;51369;49.862;9.908;2023-03-14T09:49:40;96282.22;;;14.00;69.64
64876;BME280;51369;49.862;9.908;2023-03-14T09:52:36;96283.06;;;14.01;69.90
64876;BME280;51369;49.862;9.908;2023-03-14T09:55:16;96278.34;;;14.03;69.59
64876;BME280;51369;49.862;9.908;2023-03-14T09:57:44;96276.91;;;13.99;69.33
64876;BME280;51369;49.862;9.908;2023-03-14T10:00:17;96280.63;;;13.98;69.52
64876;BME280;51369;49.862;9.908;2023-03-14T10:02:55;96278.34;;;14.03;69.43
64876;BME280;51369;49.862;9.908;2023-03-14T10:05:23;96279.25;;;14.13;68.84
64876;BME280;51369;49.862;9.908;2023-03-14T10:07:50;96272.00;;;14.23;69.81
64876;BME280;51369;49.862;9.908;2023-03-14T10:10:21;96274.28;;;14.28;69.51
64876;BME280;51369;49.862;9.908;2023-03-14T10:13:17;96255.56;;;14.25;69.39
64876;BME280;51369;49.862;9.908;2023-03-14T10:15:41;96266.84;;;14.20;69.52
64876;BME280;51369;49.862;9.908;2023-03-14T10:18:11;96277.25;;;14.15;69.50
64876;BME280;51369;49.862;9.908;2023-03-14T10:20:41;96260.25;;;14.13;69.31
64876;BME280;51369;49.862;9.908;2023-03-14T10:25:41;96263.69;;;14.15;69.51
64876;BME280;51369;49.862;9.908;2023-03-14T10:28:27;96263.13;;;14.21;69.23
64876;BME280;51369;49.862;9.908;2023-03-14T10:30:54;96252.00;;;14.34;69.36
64876;BME280;51369;49.862;9.908;2023-03-14T10:33:28;96254.06;;;14.51;69.59
64876;BME280;51369;49.862;9.908;2023-03-14T10:38:25;96261.53;;;14.97;69.49
64876;BME280;51369;49.862;9.908;2023-03-14T10:40:52;96257.06;;;15.16;69.31
64876;BME280;51369;49.862;9.908;2023-03-14T10:43:38;96257.19;;;15.34;69.25
64876;BME280;51369;49.862;9.908;2023-03-14T10:46:18;96257.16;;;15.43;68.00
64876;BME280;51369;49.862;9.908;2023-03-14T10:49:05;96254.25;;;15.54;67.89
64876;BME280;51369;49.862;9.908;2023-03-14T10:51:31;96249.81;;;15.63;67.44
64876;BME280;51369;49.862;9.908;2023-03-14T10:56:23;96242.91;;;15.69;67.70
64876;BME280;51369;49.862;9.908;2023-03-14T10:58:51;96241.19;;;15.68;67.48
64876;BME280;51369;49.862;9.908;2023-03-14T11:01:40;96245.78;;;15.67;66.74
64876;BME280;51369;49.862;9.908;2023-03-14T11:07:12;96252.00;;;15.59;66.13
64876;BME280;51369;49.862;9.908;2023-03-14T11:15:38;96246.13;;;15.45;66.23
64876;BME280;51369;49.862;9.908;2023-03-14T11:20:45;96256.63;;;15.30;67.79
64876;BME280;51369;49.862;9.908;2023-03-14T11:23:36;96253.78;;;15.12;67.18
64876;BME280;51369;49.862;9.908;2023-03-14T11:28:40;96244.06;;;15.10;67.80
64876;BME280;51369;49.862;9.908;2023-03-14T11:31:19;96252.06;;;15.11;67.42
64876;BME280;51369;49.862;9.908;2023-03-14T11:36:59;96250.22;;;15.12;67.81
64876;BME280;51369;49.862;9.908;2023-03-14T11:39:30;96243.34;;;15.17;68.83
64876;BME280;51369;49.862;9.908;2023-03-14T11:42:01;96258.06;;;15.15;68.63
64876;BME280;51369;49.862;9.908;2023-03-14T11:44:32;96250.63;;;15.07;69.08
64876;BME280;51369;49.862;9.908;2023-03-14T11:49:53;96254.94;;;14.90;69.82
64876;BME280;51369;49.862;9.908;2023-03-14T11:52:33;96256.94;;;14.79;70.02
64876;BME280;51369;49.862;9.908;2023-03-14T11:55:05;96249.66;;;14.60;70.44
64876;BME280;51369;49.862;9.908;2023-03-14T11:57:32;96248.34;;;14.45;70.55
64876;BME280;51369;49.862;9.908;2023-03-14T12:03:03;96251.25;;;14.13;71.62
64876;BME280;51369;49.862;9.908;2023-03-14T12:05:43;96244.53;;;14.07;72.62
64876;BME280;51369;49.862;9.908;2023-03-14T12:11:02;96245.06;;;13.82;73.03
64876;BME280;51369;49.862;9.908;2023-03-14T12:13:37;96242.72;;;13.67;73.45
64876;BME280;51369;49.862;9.908;2023-03-14T12:16:06;96243.66;;;13.57;73.09
64876;BME280;51369;49.862;9.908;2023-03-14T12:18:36;96246.59;;;13.44;73.39
64876;BME280;51369;49.862;9.908;2023-03-14T12:21:07;96240.72;;;13.39;74.26
64876;BME280;51369;49.862;9.908;2023-03-14T12:23:42;96244.69;;;13.35;75.36
64876;BME280;51369;49.862;9.908;2023-03-14T12:28:38;96234.66;;;13.26;75.08
64876;BME280;51369;49.862;9.908;2023-03-14T12:34:03;96234.69;;;13.15;74.70
64876;BME280;51369;49.862;9.908;2023-03-14T12:39:33;96229.16;;;12.95;75.20
64876;BME280;51369;49.862;9.908;2023-03-14T12:47:00;96239.13;;;12.74;76.00
64876;BME280;51369;49.862;9.908;2023-03-14T12:49:39;96256.63;;;12.70;76.19
64876;BME280;51369;49.862;9.908;2023-03-14T12:52:14;96237.47;;;12.62;76.19
64876;BME280;51369;49.862;9.908;2023-03-14T12:54:59;96247.81;;;12.57;76.76
64876;BME280;51369;49.862;9.908;2023-03-14T12:57:38;96251.03;;;12.51;75.90
64876;BME280;51369;49.862;9.908;2023-03-14T13:00:20;96248.97;;;12.43;77.15
64876;BME280;51369;49.862;9.908;2023-03-14T13:02:47;96250.09;;;12.41;77.23
64876;BME280;51369;49.862;9.908;2023-03-14T13:05:24;96248.63;;;12.36;77.68
64876;BME280;51369;49.862;9.908;2023-03-14T13:10:19;96257.25;;;12.30;77.80
64876;BME280;51369;49.862;9.908;2023-03-14T13:13:02;96257.38;;;12.29;77.19
64876;BME280;51369;49.862;9.908;2023-03-14T13:15:38;96260.22;;;12.27;77.56
64876;BME280;51369;49.862;9.908;2023-03-14T13:18:17;96262.81;;;12.29;78.13
64876;BME280;51369;49.862;9.908;2023-03-14T13:20:55;96247.31;;;12.31;77.44
64876;BME280;51369;49.862;9.908;2023-03-14T13:23:56;96260.09;;;12.29;78.09
64876;BME280;51369;49.862;9.908;2023-03-14T13:26:23;96276.19;;;12.30;78.23
64876;BME280;51369;49.862;9.908;2023-03-14T13:28:49;96305.34;;;12.27;76.43
64876;BME280;51369;49.862;9.908;2023-03-14T13:31:25;96319.63;;;12.18;75.51
64876;BME280;51369;49.862;9.908;2023-03-14T13:33:59;96376.59;;;12.05;74.27
64876;BME280;51369;49.862;9.908;2023-03-14T13:36:25;96387.78;;;11.89;73.21
64876;BME280;51369;49.862;9.908;2023-03-14T13:39:00;96403.09;;;11.66;72.60
64876;BME280;51369;49.862;9.908;2023-03-14T13:41:27;96420.84;;;11.47;72.79
64876;BME280;51369;49.862;9.908;2023-03-14T13:44:01;96444.97;;;11.26;71.97
64876;BME280;51369;49.862;9.908;2023-03-14T13:46:27;96454.47;;;11.07;71.89
64876;BME280;51369;49.862;9.908;2023-03-14T13:48:56;96469.09;;;10.92;72.59
64876;BME280;51369;49.862;9.908;2023-03-14T13:51:24;96468.94;;;10.83;73.25
64876;BME280;51369;49.862;9.908;2023-03-14T13:53:54;96494.66;;;10.75;72.74
64876;BME280;51369;49.862;9.908;2023-03-14T13:56:22;96518.41;;;10.70;73.08
64876;BME280;51369;49.862;9.908;2023-03-14T13:58:48;96518.00;;;10.64;73.09
64876;BME280;51369;49.862;9.908;2023-03-14T14:01:30;96520.16;;;10.59;74.00
64876;BME280;51369;49.862;9.908;2023-03-14T14:04:02;96522.09;;;10.57;73.32
64876;BME280;51369;49.862;9.908;2023-03-14T14:06:38;96539.50;;;10.53;73.80
64876;BME280;51369;49.862;9.908;2023-03-14T14:09:15;96531.50;;;10.51;74.08